createdAt,value
2022-12-11T00:00:15.465Z,78.34
2022-12-11T00:01:20.377Z,78.59
2022-12-11T00:02:22.082Z,78.71
2022-12-11T00:03:24.639Z,78.61
2022-12-11T00:04:26.405Z,78.64
2022-12-11T00:05:29.121Z,78.51
2022-12-11T00:06:30.617Z,78.48
2022-12-11T00:07:33.130Z,78.73
2022-12-11T00:08:34.868Z,78.62
2022-12-11T00:09:39.019Z,78.54
2022-12-11T00:10:47.017Z,78.42
2022-12-11T00:11:49.947Z,78.49
2022-12-11T00:12:51.513Z,78.42
2022-12-11T00:13:53.998Z,78.45
2022-12-11T00:14:55.522Z,78.51
2022-12-11T00:15:59.285Z,78.46
2022-12-11T00:17:00.817Z,78.14
2022-12-11T00:18:03.362Z,78.45
2022-12-11T00:19:05.375Z,78.61
2022-12-11T00:20:09.096Z,78.53
2022-12-11T00:21:13.186Z,78.51
2022-12-11T00:22:15.806Z,78.37
2022-12-11T00:23:17.444Z,78.35
2022-12-11T00:24:23.720Z,78.58
2022-12-11T00:25:26.815Z,78.30
2022-12-11T00:26:29.275Z,78.38
2022-12-11T00:27:30.801Z,78.17
2022-12-11T00:28:33.612Z,78.64
2022-12-11T00:29:35.284Z,78.44
2022-12-11T00:30:40.383Z,78.29
2022-12-11T00:31:42.422Z,78.28
2022-12-11T00:32:44.919Z,78.56
2022-12-11T00:33:48.927Z,78.67
2022-12-11T00:34:51.995Z,78.67
2022-12-11T00:35:54.024Z,78.63
2022-12-11T00:36:56.552Z,78.72
2022-12-11T00:37:58.267Z,78.65
2022-12-11T00:39:02.670Z,78.55
2022-12-11T00:40:04.908Z,78.22
2022-12-11T00:41:08.765Z,78.63
2022-12-11T00:42:11.264Z,78.46
2022-12-11T00:43:13.244Z,78.46
2022-12-11T00:44:16.037Z,78.54
2022-12-11T00:45:17.707Z,78.58
2022-12-11T00:46:20.262Z,78.32
2022-12-11T00:47:21.849Z,78.59
2022-12-11T00:48:25.231Z,78.71
2022-12-11T00:49:26.842Z,78.55
2022-12-11T00:50:29.598Z,78.54
2022-12-11T00:51:31.167Z,78.63
2022-12-11T00:52:34.740Z,78.82
2022-12-11T00:53:37.165Z,78.62
2022-12-11T00:54:39.652Z,78.68
2022-12-11T00:55:42.477Z,78.79
2022-12-11T00:56:46.352Z,78.79
2022-12-11T00:57:47.873Z,78.72
2022-12-11T00:58:50.749Z,78.54
2022-12-11T00:59:52.900Z,78.53
2022-12-11T01:00:55.479Z,78.72
2022-12-11T01:01:57.032Z,78.83
2022-12-11T01:02:59.781Z,78.54
2022-12-11T01:04:02.437Z,78.59
2022-12-11T01:05:04.515Z,78.69
2022-12-11T01:06:08.202Z,78.67
2022-12-11T01:07:09.753Z,78.61
2022-12-11T01:08:12.350Z,78.74
2022-12-11T01:09:32.722Z,78.56
2022-12-11T01:10:34.660Z,78.13
2022-12-11T01:11:37.257Z,78.18
2022-12-11T01:12:40.287Z,78.36
2022-12-11T01:13:43.292Z,78.62
2022-12-11T01:14:44.829Z,78.54
2022-12-11T01:15:56.764Z,78.37
2022-12-11T01:17:01.477Z,78.50
2022-12-11T01:18:05.005Z,78.37
2022-12-11T01:19:06.712Z,78.28
2022-12-11T01:20:10.036Z,78.15
2022-12-11T01:21:13.566Z,78.41
2022-12-11T01:22:16.152Z,78.29
2022-12-11T01:23:17.792Z,78.47
2022-12-11T01:24:20.322Z,78.01
2022-12-11T01:25:22.255Z,78.13
2022-12-11T01:26:24.733Z,77.78
2022-12-11T01:27:26.287Z,78.21
2022-12-11T01:28:30.101Z,77.89
2022-12-11T01:29:32.284Z,77.59
2022-12-11T01:30:34.958Z,77.75
2022-12-11T01:31:37.709Z,77.66
2022-12-11T01:32:40.299Z,77.66
2022-12-11T01:33:43.531Z,77.83
2022-12-11T01:34:45.087Z,77.54
2022-12-11T01:35:47.583Z,77.57
2022-12-11T01:36:51.566Z,77.61
2022-12-11T01:37:54.494Z,77.81
2022-12-11T01:38:56.314Z,77.50
2022-12-11T01:39:58.944Z,77.74
2022-12-11T01:41:00.468Z,77.51
2022-12-11T01:42:02.972Z,77.40
2022-12-11T01:43:04.520Z,77.47
2022-12-11T01:44:29.067Z,77.37
2022-12-11T01:45:39.924Z,77.22
2022-12-11T01:46:43.736Z,77.31
2022-12-11T01:47:45.363Z,77.19
2022-12-11T01:48:47.899Z,77.34
2022-12-11T01:49:49.545Z,77.22
2022-12-11T01:50:58.947Z,77.19
2022-12-11T01:52:04.853Z,77.16
2022-12-11T01:53:09.598Z,77.14
2022-12-11T01:54:14.138Z,77.41
2022-12-11T01:55:18.138Z,77.09
2022-12-11T01:56:20.037Z,77.36
2022-12-11T01:57:22.566Z,77.41
2022-12-11T01:58:29.413Z,77.44
2022-12-11T01:59:38.375Z,77.08
2022-12-11T02:00:41.663Z,77.43
2022-12-11T02:01:58.001Z,77.54
2022-12-11T02:02:59.597Z,77.11
2022-12-11T02:04:02.617Z,76.90
2022-12-11T02:05:06.163Z,77.21
2022-12-11T02:06:33.921Z,77.13
2022-12-11T02:07:40.473Z,77.23
2022-12-11T02:08:42.983Z,77.34
2022-12-11T02:09:46.540Z,77.36
2022-12-11T02:11:00.562Z,77.24
2022-12-11T02:12:07.560Z,77.25
2022-12-11T02:13:15.291Z,77.24
2022-12-11T02:14:25.832Z,77.68
2022-12-11T02:15:35.608Z,77.36
2022-12-11T02:16:45.676Z,77.16
2022-12-11T02:17:51.932Z,77.25
2022-12-11T02:19:02.089Z,77.32
2022-12-11T02:20:13.328Z,77.39
2022-12-11T02:21:24.155Z,77.30
2022-12-11T02:22:36.781Z,77.03
2022-12-11T02:24:17.862Z,76.98
2022-12-11T02:25:32.565Z,77.06
2022-12-11T02:27:10.580Z,77.45
2022-12-11T02:28:18.716Z,77.09
2022-12-11T02:29:27.084Z,77.40
2022-12-11T02:30:29.585Z,77.34
2022-12-11T02:31:36.573Z,77.27
2022-12-11T02:32:45.992Z,77.23
2022-12-11T02:33:52.358Z,77.33
2022-12-11T02:35:03.641Z,77.24
2022-12-11T02:36:16.178Z,77.21
2022-12-11T02:37:24.099Z,77.29
2022-12-11T02:38:31.089Z,77.23
2022-12-11T02:39:36.823Z,77.16
2022-12-11T02:40:41.424Z,77.24
2022-12-11T02:41:47.790Z,77.18
2022-12-11T02:42:52.564Z,76.91
2022-12-11T02:43:57.382Z,77.10
2022-12-11T02:45:01.473Z,77.12
2022-12-11T02:46:06.123Z,77.19
2022-12-11T02:47:13.766Z,77.01
2022-12-11T02:48:17.274Z,77.04
2022-12-11T02:49:21.611Z,77.18
2022-12-11T02:50:27.934Z,76.95
2022-12-11T02:51:34.644Z,77.08
2022-12-11T02:52:37.995Z,77.28
2022-12-11T02:53:43.803Z,77.29
2022-12-11T02:54:47.565Z,77.09
2022-12-11T02:56:02.331Z,77.23
2022-12-11T02:57:16.645Z,77.10
2022-12-11T02:58:23.848Z,77.39
2022-12-11T02:59:31.033Z,77.16
2022-12-11T03:00:33.747Z,77.07
2022-12-11T03:01:35.366Z,77.29
2022-12-11T03:02:38.722Z,77.59
2022-12-11T03:03:40.385Z,77.32
2022-12-11T03:04:44.336Z,77.35
2022-12-11T03:05:46.316Z,77.30
2022-12-11T03:06:52.283Z,77.07
2022-12-11T03:07:53.881Z,77.15
2022-12-11T03:08:56.455Z,77.37
2022-12-11T03:09:57.999Z,77.12
2022-12-11T03:11:00.466Z,77.44
2022-12-11T03:12:02.092Z,77.62
2022-12-11T03:13:05.585Z,77.32
2022-12-11T03:14:08.165Z,77.26
2022-12-11T03:15:15.574Z,77.44
2022-12-11T03:16:24.206Z,77.42
2022-12-11T03:17:33.555Z,77.18
2022-12-11T03:18:44.007Z,77.44
2022-12-11T03:19:53.919Z,77.33
2022-12-11T03:21:05.716Z,77.57
2022-12-11T03:22:19.650Z,77.63
2022-12-11T03:23:28.158Z,77.33
2022-12-11T03:24:38.403Z,77.49
2022-12-11T03:25:47.626Z,77.65
2022-12-11T03:26:56.877Z,77.58
2022-12-11T03:28:06.730Z,77.63
2022-12-11T03:29:15.930Z,77.68
2022-12-11T03:30:21.576Z,77.71
2022-12-11T03:31:28.786Z,77.39
2022-12-11T03:32:37.640Z,77.46
2022-12-11T03:33:41.633Z,77.55
2022-12-11T03:34:47.722Z,77.70
2022-12-11T03:35:53.356Z,77.83
2022-12-11T03:36:58.535Z,77.71
2022-12-11T03:38:05.298Z,77.68
2022-12-11T03:39:11.748Z,77.84
2022-12-11T03:40:15.965Z,77.87
2022-12-11T03:41:22.567Z,77.88
2022-12-11T03:42:26.388Z,77.74
2022-12-11T03:43:31.922Z,77.75
2022-12-11T03:44:36.015Z,77.73
2022-12-11T03:45:41.070Z,77.79
2022-12-11T03:46:44.894Z,78.11
2022-12-11T03:47:48.586Z,77.75
2022-12-11T03:48:51.637Z,77.63
2022-12-11T03:50:09.566Z,77.65
2022-12-11T03:51:11.168Z,77.79
2022-12-11T03:52:15.635Z,77.73
2022-12-11T03:53:18.723Z,77.73
2022-12-11T03:54:21.588Z,77.73
2022-12-11T03:55:24.713Z,77.61
2022-12-11T03:56:29.568Z,77.86
2022-12-11T03:57:35.974Z,77.73
2022-12-11T03:58:39.487Z,77.64
2022-12-11T03:59:41.100Z,77.74
2022-12-11T04:00:44.972Z,77.73
2022-12-11T04:01:46.631Z,77.67
2022-12-11T04:03:13.375Z,77.50
2022-12-11T04:04:16.704Z,77.63
2022-12-11T04:05:18.415Z,77.62
2022-12-11T04:06:20.945Z,77.24
2022-12-11T04:07:22.543Z,77.56
2022-12-11T04:08:25.411Z,77.34
2022-12-11T04:09:27.111Z,77.36
2022-12-11T04:10:29.604Z,77.44
2022-12-11T04:11:37.107Z,77.32
2022-12-11T04:12:39.574Z,77.54
2022-12-11T04:13:41.895Z,77.50
2022-12-11T04:15:01.763Z,77.37
2022-12-11T04:16:06.033Z,77.36
2022-12-11T04:17:07.716Z,77.21
2022-12-11T04:18:28.640Z,77.31
2022-12-11T04:19:48.888Z,77.37
2022-12-11T04:21:12.321Z,77.25
2022-12-11T04:22:34.525Z,77.41
2022-12-11T04:23:54.721Z,77.36
2022-12-11T04:24:57.260Z,77.43
2022-12-11T04:26:04.394Z,77.25
2022-12-11T04:27:07.075Z,77.27
2022-12-11T04:28:08.919Z,77.46
2022-12-11T04:29:11.446Z,77.32
2022-12-11T04:30:15.846Z,77.30
2022-12-11T04:31:22.384Z,77.26
2022-12-11T04:32:24.098Z,77.40
2022-12-11T04:33:26.844Z,77.28
2022-12-11T04:34:29.097Z,77.34
2022-12-11T04:35:31.793Z,77.40
2022-12-11T04:36:33.344Z,77.23
2022-12-11T04:37:36.622Z,77.11
2022-12-11T04:38:38.179Z,77.43
2022-12-11T04:39:40.686Z,77.28
2022-12-11T04:40:42.254Z,77.16
2022-12-11T04:41:44.847Z,77.17
2022-12-11T04:42:46.423Z,77.01
2022-12-11T04:43:48.982Z,77.07
2022-12-11T04:44:50.760Z,77.22
2022-12-11T04:46:01.823Z,77.36
2022-12-11T04:47:04.884Z,77.33
2022-12-11T04:48:08.438Z,77.21
2022-12-11T04:49:10.125Z,77.15
2022-12-11T04:50:15.483Z,77.23
2022-12-11T04:51:18.569Z,77.19
2022-12-11T04:52:21.951Z,77.41
2022-12-11T04:53:23.531Z,77.05
2022-12-11T04:54:26.184Z,77.14
2022-12-11T04:55:30.891Z,76.95
2022-12-11T04:56:33.419Z,77.16
2022-12-11T04:57:35.188Z,77.10
2022-12-11T04:58:38.300Z,76.81
2022-12-11T04:59:40.091Z,76.95
2022-12-11T05:00:42.862Z,77.04
2022-12-11T05:01:44.428Z,77.00
2022-12-11T05:02:48.348Z,77.33
2022-12-11T05:03:50.272Z,76.92
2022-12-11T05:04:53.022Z,76.74
2022-12-11T05:05:54.533Z,76.67
2022-12-11T05:06:57.031Z,76.55
2022-12-11T05:07:58.578Z,76.89
2022-12-11T05:09:01.049Z,76.75
2022-12-11T05:10:02.614Z,76.80
2022-12-11T05:11:07.494Z,76.65
2022-12-11T05:12:09.160Z,76.71
2022-12-11T05:13:11.696Z,76.81
2022-12-11T05:14:13.999Z,76.69
2022-12-11T05:15:16.563Z,76.69
2022-12-11T05:16:18.309Z,76.56
2022-12-11T05:17:22.225Z,76.43
2022-12-11T05:18:25.461Z,76.55
2022-12-11T05:19:28.519Z,76.48
2022-12-11T05:20:30.059Z,76.31
2022-12-11T05:21:35.202Z,76.56
2022-12-11T05:22:37.344Z,76.71
2022-12-11T05:23:40.466Z,76.64
2022-12-11T05:24:43.543Z,76.58
2022-12-11T05:25:52.698Z,76.61
2022-12-11T05:26:54.236Z,76.60
2022-12-11T05:27:56.775Z,76.48
2022-12-11T05:28:58.298Z,76.48
2022-12-11T05:30:00.779Z,76.48
2022-12-11T05:31:04.567Z,76.46
2022-12-11T05:32:07.231Z,76.38
2022-12-11T05:33:08.723Z,76.46
2022-12-11T05:34:12.709Z,76.48
2022-12-11T05:35:14.298Z,76.49
2022-12-11T05:36:18.955Z,76.60
2022-12-11T05:37:20.638Z,76.41
2022-12-11T05:38:30.629Z,76.64
2022-12-11T05:39:32.148Z,76.55
2022-12-11T05:40:34.626Z,76.51
2022-12-11T05:41:36.159Z,76.63
2022-12-11T05:42:38.721Z,76.58
2022-12-11T05:43:40.844Z,76.47
2022-12-11T05:44:43.386Z,76.56
2022-12-11T05:45:44.898Z,76.59
2022-12-11T05:46:48.111Z,76.26
2022-12-11T05:47:49.644Z,76.33
2022-12-11T05:48:55.310Z,76.46
2022-12-11T05:49:58.158Z,76.51
2022-12-11T05:51:01.949Z,76.31
2022-12-11T05:52:03.559Z,76.38
2022-12-11T05:53:06.037Z,76.43
2022-12-11T05:54:07.698Z,76.54
2022-12-11T05:55:10.664Z,76.43
2022-12-11T05:56:18.513Z,76.35
2022-12-11T05:57:21.021Z,76.48
2022-12-11T05:58:22.558Z,76.30
2022-12-11T05:59:25.030Z,76.26
2022-12-11T06:00:29.338Z,76.11
2022-12-11T06:01:36.050Z,76.08
2022-12-11T06:02:38.117Z,75.98
2022-12-11T06:03:40.895Z,76.11
2022-12-11T06:04:43.501Z,76.09
2022-12-11T06:05:46.535Z,76.08
2022-12-11T06:06:49.607Z,76.13
2022-12-11T06:07:51.176Z,76.03
2022-12-11T06:08:54.876Z,76.10
2022-12-11T06:09:56.431Z,76.13
2022-12-11T06:10:59.144Z,75.99
2022-12-11T06:12:01.641Z,76.18
2022-12-11T06:13:03.463Z,76.11
2022-12-11T06:14:05.966Z,76.19
2022-12-11T06:15:08.375Z,76.06
2022-12-11T06:16:11.524Z,76.02
2022-12-11T06:17:13.051Z,75.76
2022-12-11T06:18:15.527Z,75.91
2022-12-11T06:19:18.213Z,75.86
2022-12-11T06:20:20.778Z,75.91
2022-12-11T06:21:26.282Z,75.82
2022-12-11T06:22:28.799Z,75.87
2022-12-11T06:23:30.404Z,75.93
2022-12-11T06:24:32.981Z,75.77
2022-12-11T06:25:35.240Z,75.66
2022-12-11T06:26:38.414Z,75.82
2022-12-11T06:27:40.323Z,75.82
2022-12-11T06:28:42.922Z,76.01
2022-12-11T06:29:44.463Z,75.95
2022-12-11T06:30:47.024Z,75.91
2022-12-11T06:31:48.703Z,76.08
2022-12-11T06:32:51.223Z,75.95
2022-12-11T06:33:52.884Z,76.02
2022-12-11T06:34:55.416Z,75.88
2022-12-11T06:35:56.999Z,75.87
2022-12-11T06:37:01.094Z,75.97
2022-12-11T06:38:02.651Z,75.81
2022-12-11T06:39:05.261Z,75.85
2022-12-11T06:40:08.794Z,75.94
2022-12-11T06:41:11.481Z,75.93
2022-12-11T06:42:13.737Z,75.99
2022-12-11T06:43:16.265Z,75.89
2022-12-11T06:44:17.818Z,75.89
2022-12-11T06:45:20.323Z,75.72
2022-12-11T06:46:22.908Z,75.90
2022-12-11T06:47:24.492Z,75.64
2022-12-11T06:48:27.100Z,75.69
2022-12-11T06:49:28.696Z,76.06
2022-12-11T06:50:31.435Z,75.74
2022-12-11T06:51:33.012Z,75.92
2022-12-11T06:52:37.050Z,75.79
2022-12-11T06:53:39.410Z,75.95
2022-12-11T06:54:42.078Z,75.99
2022-12-11T06:55:43.710Z,75.97
2022-12-11T06:56:47.225Z,75.81
2022-12-11T06:57:48.847Z,75.95
2022-12-11T06:58:51.870Z,75.79
2022-12-11T06:59:53.450Z,75.77
2022-12-11T07:00:55.947Z,76.02
2022-12-11T07:01:57.464Z,75.87
2022-12-11T07:03:00.003Z,75.76
2022-12-11T07:04:01.551Z,75.75
2022-12-11T07:05:04.489Z,75.68
2022-12-11T07:06:06.457Z,75.88
2022-12-11T07:07:09.331Z,75.55
2022-12-11T07:08:12.251Z,75.82
2022-12-11T07:09:14.795Z,75.81
2022-12-11T07:10:19.956Z,75.82
2022-12-11T07:11:23.379Z,75.83
2022-12-11T07:12:24.875Z,75.69
2022-12-11T07:13:27.365Z,75.69
2022-12-11T07:14:28.901Z,75.79
2022-12-11T07:15:31.418Z,75.70
2022-12-11T07:16:33.104Z,75.81
2022-12-11T07:17:35.650Z,75.81
2022-12-11T07:18:38.024Z,75.76
2022-12-11T07:19:40.670Z,75.90
2022-12-11T07:20:42.226Z,75.63
2022-12-11T07:21:45.305Z,75.73
2022-12-11T07:22:47.071Z,75.63
2022-12-11T07:23:51.343Z,75.71
2022-12-11T07:24:52.920Z,75.72
2022-12-11T07:25:55.459Z,75.56
2022-12-11T07:26:57.893Z,75.34
2022-12-11T07:28:00.399Z,75.61
2022-12-11T07:29:01.896Z,75.71
2022-12-11T07:30:05.118Z,75.63
2022-12-11T07:31:07.583Z,75.43
2022-12-11T07:32:10.535Z,75.51
2022-12-11T07:33:12.119Z,75.38
2022-12-11T07:34:15.078Z,75.58
2022-12-11T07:35:16.870Z,75.65
2022-12-11T07:36:20.047Z,75.58
2022-12-11T07:37:21.653Z,75.52
2022-12-11T07:38:24.478Z,75.56
2022-12-11T07:39:28.552Z,75.46
2022-12-11T07:40:30.276Z,75.57
2022-12-11T07:41:32.767Z,75.64
2022-12-11T07:42:34.266Z,75.61
2022-12-11T07:43:37.184Z,75.64
2022-12-11T07:44:38.701Z,75.50
2022-12-11T07:45:41.159Z,75.46
2022-12-11T07:46:43.709Z,75.60
2022-12-11T07:47:45.289Z,75.63
2022-12-11T07:48:48.986Z,75.62
2022-12-11T07:49:50.527Z,75.51
2022-12-11T07:50:52.993Z,75.65
2022-12-11T07:51:54.513Z,75.61
2022-12-11T07:52:56.943Z,75.56
2022-12-11T07:54:00.025Z,75.60
2022-12-11T07:55:03.976Z,75.63
2022-12-11T07:56:06.482Z,75.50
2022-12-11T07:57:13.885Z,75.62
2022-12-11T07:58:16.572Z,75.37
2022-12-11T07:59:19.224Z,75.50
2022-12-11T08:00:20.880Z,75.46
2022-12-11T08:01:25.834Z,75.41
2022-12-11T08:02:31.365Z,75.34
2022-12-11T08:03:37.071Z,75.30
2022-12-11T08:04:39.611Z,75.39
2022-12-11T08:05:47.897Z,75.48
2022-12-11T08:06:50.429Z,75.32
2022-12-11T08:07:52.975Z,75.47
2022-12-11T08:08:55.057Z,74.99
2022-12-11T08:09:57.532Z,75.26
2022-12-11T08:11:03.024Z,75.30
2022-12-11T08:12:04.911Z,74.99
2022-12-11T08:13:07.458Z,75.27
2022-12-11T08:14:09.454Z,75.19
2022-12-11T08:15:12.622Z,75.04
2022-12-11T08:16:16.364Z,75.25
2022-12-11T08:17:17.904Z,75.18
2022-12-11T08:18:20.958Z,75.27
2022-12-11T08:19:22.538Z,75.17
2022-12-11T08:20:25.359Z,75.31
2022-12-11T08:21:28.245Z,75.19
2022-12-11T08:22:30.760Z,75.40
2022-12-11T08:23:32.286Z,75.39
2022-12-11T08:24:34.903Z,75.08
2022-12-11T08:25:37.367Z,75.21
2022-12-11T08:26:41.238Z,75.14
2022-12-11T08:27:42.764Z,75.19
2022-12-11T08:28:45.308Z,74.98
2022-12-11T08:29:47.780Z,75.01
2022-12-11T08:30:49.410Z,74.94
2022-12-11T08:31:51.924Z,74.80
2022-12-11T08:32:53.521Z,74.68
2022-12-11T08:33:56.822Z,74.80
2022-12-11T08:34:59.323Z,74.73
2022-12-11T08:36:03.330Z,74.80
2022-12-11T08:37:05.811Z,74.79
2022-12-11T08:38:07.366Z,74.74
2022-12-11T08:39:09.869Z,74.66
2022-12-11T08:40:14.087Z,74.79
2022-12-11T08:41:18.613Z,74.79
2022-12-11T08:42:22.543Z,74.63
2022-12-11T08:43:26.706Z,74.70
2022-12-11T08:44:28.347Z,74.54
2022-12-11T08:45:30.933Z,74.49
2022-12-11T08:46:33.574Z,74.48
2022-12-11T08:47:35.191Z,74.70
2022-12-11T08:48:39.687Z,74.36
2022-12-11T08:49:50.917Z,74.40
2022-12-11T08:50:53.081Z,74.39
2022-12-11T08:51:55.616Z,74.52
2022-12-11T08:53:08.144Z,74.65
2022-12-11T08:54:11.974Z,74.51
2022-12-11T08:55:13.823Z,74.45
2022-12-11T08:56:19.101Z,74.43
2022-12-11T08:57:23.007Z,74.60
2022-12-11T08:58:24.531Z,74.34
2022-12-11T08:59:27.029Z,74.41
2022-12-11T09:00:28.530Z,74.54
2022-12-11T09:01:31.038Z,74.40
2022-12-11T09:02:32.596Z,74.49
2022-12-11T09:03:35.167Z,74.51
2022-12-11T09:04:37.690Z,74.29
2022-12-11T09:05:39.971Z,74.54
2022-12-11T09:06:42.491Z,74.44
2022-12-11T09:07:45.470Z,74.52
2022-12-11T09:08:52.708Z,74.41
2022-12-11T09:09:55.391Z,74.32
2022-12-11T09:11:03.997Z,74.46
2022-12-11T09:12:06.772Z,74.27
2022-12-11T09:13:09.622Z,74.34
2022-12-11T09:14:12.308Z,74.24
2022-12-11T09:15:14.789Z,74.39
2022-12-11T09:16:19.900Z,74.16
2022-12-11T09:17:21.552Z,74.21
2022-12-11T09:18:23.995Z,74.15
2022-12-11T09:19:34.751Z,73.99
2022-12-11T09:20:36.524Z,73.90
2022-12-11T09:21:39.162Z,73.88
2022-12-11T09:22:42.643Z,73.69
2022-12-11T09:23:45.633Z,73.58
2022-12-11T09:24:48.118Z,73.75
2022-12-11T09:25:49.638Z,73.52
2022-12-11T09:26:52.108Z,73.65
2022-12-11T09:27:54.635Z,73.67
2022-12-11T09:28:59.008Z,73.63
2022-12-11T09:30:01.495Z,73.57
2022-12-11T09:31:09.725Z,73.70
2022-12-11T09:32:12.333Z,73.51
2022-12-11T09:33:13.871Z,73.36
2022-12-11T09:34:16.514Z,73.39
2022-12-11T09:35:18.057Z,73.45
2022-12-11T09:36:20.849Z,73.51
2022-12-11T09:37:27.855Z,73.32
2022-12-11T09:38:31.852Z,73.07
2022-12-11T09:39:33.339Z,73.24
2022-12-11T09:40:40.620Z,73.08
2022-12-11T09:41:50.753Z,73.03
2022-12-11T09:42:58.149Z,72.96
2022-12-11T09:44:15.744Z,72.92
2022-12-11T09:45:18.918Z,73.07
2022-12-11T09:46:24.424Z,72.87
2022-12-11T09:47:35.251Z,72.92
2022-12-11T09:48:38.995Z,72.70
2022-12-11T09:49:46.633Z,72.92
2022-12-11T09:50:51.577Z,72.86
2022-12-11T09:52:01.513Z,72.86
2022-12-11T09:53:12.572Z,72.63
2022-12-11T09:54:15.019Z,72.70
2022-12-11T09:55:21.512Z,72.44
2022-12-11T09:56:35.191Z,72.61
2022-12-11T09:57:47.421Z,72.35
2022-12-11T09:59:04.151Z,72.52
2022-12-11T10:00:16.198Z,72.41
2022-12-11T10:01:27.035Z,72.42
2022-12-11T10:02:41.126Z,72.40
2022-12-11T10:04:01.082Z,72.58
2022-12-11T10:05:14.354Z,72.53
2022-12-11T10:06:24.875Z,72.36
2022-12-11T10:07:34.944Z,72.57
2022-12-11T10:08:47.156Z,72.58
2022-12-11T10:09:57.463Z,72.42
2022-12-11T10:11:14.424Z,72.31
2022-12-11T10:12:30.620Z,72.32
2022-12-11T10:13:40.020Z,71.96
2022-12-11T10:14:56.039Z,72.24
2022-12-11T10:16:04.960Z,72.06
2022-12-11T10:17:12.263Z,71.99
2022-12-11T10:18:23.098Z,72.12
2022-12-11T10:19:28.898Z,72.05
2022-12-11T10:20:36.348Z,72.00
2022-12-11T10:21:42.275Z,71.85
2022-12-11T10:22:46.298Z,71.92
2022-12-11T10:23:54.602Z,71.88
2022-12-11T10:25:14.252Z,71.95
2022-12-11T10:26:18.763Z,71.90
2022-12-11T10:27:23.100Z,71.95
2022-12-11T10:28:29.879Z,71.78
2022-12-11T10:29:32.350Z,71.94
2022-12-11T10:30:38.786Z,71.76
2022-12-11T10:31:50.687Z,71.76
2022-12-11T10:32:59.635Z,71.67
2022-12-11T10:34:03.890Z,71.82
2022-12-11T10:35:08.205Z,71.64
2022-12-11T10:36:14.623Z,71.70
2022-12-11T10:37:16.233Z,71.86
2022-12-11T10:38:24.522Z,71.66
2022-12-11T10:39:27.054Z,71.72
2022-12-11T10:40:30.759Z,71.41
2022-12-11T10:41:39.017Z,71.48
2022-12-11T10:42:45.641Z,71.42
2022-12-11T10:43:50.142Z,71.57
2022-12-11T10:45:00.622Z,71.39
2022-12-11T10:46:03.022Z,71.44
2022-12-11T10:47:11.529Z,71.53
2022-12-11T10:48:23.451Z,71.52
2022-12-11T10:49:37.617Z,71.47
2022-12-11T10:50:41.075Z,71.36
2022-12-11T10:51:42.652Z,71.38
2022-12-11T10:52:46.304Z,71.44
2022-12-11T10:53:51.833Z,71.44
2022-12-11T10:54:58.394Z,71.57
2022-12-11T10:56:01.500Z,71.64
2022-12-11T10:57:12.967Z,71.47
2022-12-11T10:58:19.741Z,71.64
2022-12-11T10:59:26.712Z,71.63
2022-12-11T11:00:37.956Z,71.71
2022-12-11T11:01:40.506Z,71.59
2022-12-11T11:02:46.171Z,71.39
2022-12-11T11:03:59.641Z,71.58
2022-12-11T11:05:13.798Z,71.46
2022-12-11T11:06:18.120Z,71.53
2022-12-11T11:07:23.607Z,71.54
2022-12-11T11:08:38.636Z,71.47
2022-12-11T11:09:41.508Z,71.67
2022-12-11T11:10:54.696Z,71.54
2022-12-11T11:11:56.314Z,71.66
2022-12-11T11:13:02.977Z,71.80
2022-12-11T11:14:07.030Z,71.75
2022-12-11T11:15:14.167Z,71.58
2022-12-11T11:16:18.949Z,71.36
2022-12-11T11:17:32.005Z,71.46
2022-12-11T11:18:40.554Z,71.80
2022-12-11T11:19:47.506Z,71.54
2022-12-11T11:20:49.199Z,71.67
2022-12-11T11:21:53.499Z,71.54
2022-12-11T11:22:58.041Z,71.66
2022-12-11T11:24:00.822Z,71.39
2022-12-11T11:25:04.859Z,71.46
2022-12-11T11:26:09.177Z,71.50
2022-12-11T11:27:31.862Z,71.46
2022-12-11T11:28:38.262Z,71.45
2022-12-11T11:29:42.197Z,71.60
2022-12-11T11:30:58.183Z,71.55
2022-12-11T11:32:18.584Z,71.79
2022-12-11T11:33:23.476Z,71.44
2022-12-11T11:34:30.748Z,71.57
2022-12-11T11:35:33.848Z,71.47
2022-12-11T11:36:38.563Z,71.31
2022-12-11T11:37:46.806Z,71.38
2022-12-11T11:38:59.388Z,71.45
2022-12-11T11:40:09.293Z,71.48
2022-12-11T11:41:17.945Z,71.60
2022-12-11T11:42:27.577Z,71.61
2022-12-11T11:43:38.708Z,71.50
2022-12-11T11:44:45.177Z,71.71
2022-12-11T11:45:53.541Z,71.84
2022-12-11T11:47:00.604Z,71.75
2022-12-11T11:48:14.357Z,71.84
2022-12-11T11:49:25.199Z,71.55
2022-12-11T11:50:34.782Z,71.53
2022-12-11T11:51:40.721Z,71.64
2022-12-11T11:52:50.871Z,71.43
2022-12-11T11:53:57.848Z,71.76
2022-12-11T11:55:10.128Z,71.74
2022-12-11T11:56:21.198Z,71.92
2022-12-11T11:57:30.396Z,71.96
2022-12-11T11:58:39.861Z,71.99
2022-12-11T11:59:48.024Z,72.12
2022-12-11T12:00:53.080Z,71.71
2022-12-11T12:01:57.671Z,71.87
2022-12-11T12:03:03.623Z,71.76
2022-12-11T12:04:06.289Z,71.83
2022-12-11T12:05:13.486Z,71.63
2022-12-11T12:06:29.217Z,71.65
2022-12-11T12:07:41.591Z,71.66
2022-12-11T12:08:52.731Z,71.58
2022-12-11T12:10:04.477Z,71.69
2022-12-11T12:11:13.164Z,71.79
2022-12-11T12:12:27.444Z,71.87
2022-12-11T12:13:49.176Z,71.70
2022-12-11T12:15:07.262Z,72.12
2022-12-11T12:16:44.049Z,71.72
2022-12-11T12:17:55.351Z,71.58
2022-12-11T12:19:07.188Z,71.59
2022-12-11T12:20:20.243Z,71.40
2022-12-11T12:21:32.063Z,71.54
2022-12-11T12:22:52.792Z,71.44
2022-12-11T12:24:06.334Z,71.41
2022-12-11T12:25:19.650Z,71.15
2022-12-11T12:26:27.727Z,71.28
2022-12-11T12:27:54.756Z,71.17
2022-12-11T12:29:10.511Z,71.10
2022-12-11T12:30:22.126Z,70.98
2022-12-11T12:31:48.243Z,71.39
2022-12-11T12:33:03.313Z,71.23
2022-12-11T12:34:14.875Z,71.34
2022-12-11T12:35:31.372Z,71.17
2022-12-11T12:36:43.707Z,71.03
2022-12-11T12:37:59.743Z,71.14
2022-12-11T12:39:04.020Z,70.81
2022-12-11T12:40:19.245Z,70.74
2022-12-11T12:41:37.459Z,71.02
2022-12-11T12:42:50.603Z,70.82
2022-12-11T12:44:01.719Z,71.01
2022-12-11T12:45:17.086Z,70.88
2022-12-11T12:50:51.855Z,70.59
2022-12-11T12:51:55.471Z,70.82
2022-12-11T12:52:58.803Z,70.70
2022-12-11T12:54:09.141Z,70.94
2022-12-11T12:55:23.571Z,70.98
2022-12-11T12:56:28.555Z,70.95
2022-12-11T12:57:30.646Z,70.81
2022-12-11T12:58:42.414Z,70.86
2022-12-11T12:59:55.195Z,70.98
2022-12-11T13:01:08.854Z,70.77
2022-12-11T13:02:17.723Z,70.95
2022-12-11T13:03:21.904Z,70.96
2022-12-11T13:04:55.467Z,70.88
2022-12-11T13:06:01.692Z,70.93
2022-12-11T13:07:27.017Z,70.95
2022-12-11T13:08:33.995Z,70.83
2022-12-11T13:09:35.947Z,70.65
2022-12-11T13:10:41.345Z,70.67
2022-12-11T13:11:43.297Z,70.66
2022-12-11T13:12:47.549Z,70.49
2022-12-11T13:14:03.110Z,70.73
2022-12-11T13:15:06.154Z,70.35
2022-12-11T13:16:24.925Z,70.19
2022-12-11T13:17:36.792Z,70.24
2022-12-11T13:18:40.525Z,70.18
2022-12-11T13:19:42.852Z,70.11
2022-12-11T13:20:50.910Z,70.13
2022-12-11T13:21:58.193Z,70.20
2022-12-11T13:23:18.565Z,70.28
2022-12-11T13:24:26.962Z,70.35
2022-12-11T13:25:46.022Z,70.32
2022-12-11T13:26:49.628Z,70.53
2022-12-11T13:27:52.243Z,70.50
2022-12-11T13:28:54.859Z,70.25
2022-12-11T13:30:07.957Z,70.46
2022-12-11T13:31:31.092Z,70.28
2022-12-11T13:32:34.635Z,70.29
2022-12-11T13:33:42.881Z,70.25
2022-12-11T13:34:52.447Z,70.19
2022-12-11T13:36:25.016Z,70.37
2022-12-11T13:37:31.741Z,70.28
2022-12-11T13:38:37.156Z,70.25
2022-12-11T13:39:40.731Z,70.26
2022-12-11T13:40:45.294Z,69.88
2022-12-11T13:41:53.174Z,70.25
2022-12-11T13:42:58.732Z,70.18
2022-12-11T13:44:06.995Z,70.02
2022-12-11T13:45:20.213Z,70.06
2022-12-11T13:46:27.708Z,70.17
2022-12-11T13:47:32.890Z,70.14
2022-12-11T13:48:38.844Z,70.10
2022-12-11T13:49:44.382Z,70.00
2022-12-11T13:50:46.290Z,69.93
2022-12-11T13:51:57.503Z,70.06
2022-12-11T13:53:01.769Z,70.01
2022-12-11T13:54:17.240Z,70.03
2022-12-11T13:55:27.282Z,69.91
2022-12-11T13:56:28.860Z,70.11
2022-12-11T13:57:31.421Z,70.00
2022-12-11T13:58:36.261Z,70.06
2022-12-11T13:59:43.036Z,70.09
2022-12-11T14:00:54.382Z,69.88
2022-12-11T14:01:59.827Z,70.03
2022-12-11T14:03:07.326Z,70.07
2022-12-11T14:04:14.779Z,70.01
2022-12-11T14:05:18.160Z,69.95
2022-12-11T14:06:19.932Z,70.15
2022-12-11T14:07:27.902Z,70.15
2022-12-11T14:08:35.183Z,70.13
2022-12-11T14:09:44.264Z,70.04